createdAt,value
2018-09-08T00:01:30.186Z,60.20
2018-09-08T00:03:57.528Z,60.70
2018-09-08T00:06:30.454Z,61.60
2018-09-08T00:08:57.851Z,61.70
2018-09-08T00:11:25.201Z,62.00
2018-09-08T00:13:52.539Z,61.20
2018-09-08T00:16:25.636Z,61.30
2018-09-08T00:18:58.610Z,61.60
2018-09-08T00:21:32.023Z,61.90
2018-09-08T00:24:05.128Z,61.40
2018-09-08T00:26:32.830Z,62.30
2018-09-08T00:29:36.755Z,62.30
2018-09-08T00:32:07.338Z,62.20
2018-09-08T00:34:34.676Z,62.30
2018-09-08T00:37:02.103Z,62.50
2018-09-08T00:39:29.426Z,62.70
2018-09-08T00:41:56.752Z,62.70
2018-09-08T00:44:24.128Z,63.10
2018-09-08T00:46:51.475Z,62.80
2018-09-08T00:49:18.884Z,63.00
2018-09-08T00:51:46.223Z,62.90
2018-09-08T00:54:13.555Z,62.90
2018-09-08T00:56:40.924Z,62.80
2018-09-08T00:59:08.272Z,62.90
2018-09-08T01:01:36.163Z,63.10
2018-09-08T01:04:03.622Z,63.10
2018-09-08T01:06:31.288Z,63.00
2018-09-08T01:08:58.718Z,63.10
2018-09-08T01:11:26.129Z,63.40
2018-09-08T01:13:53.472Z,63.10
2018-09-08T01:16:21.344Z,63.50
2018-09-08T01:18:48.695Z,63.40
2018-09-08T01:21:16.051Z,63.70
2018-09-08T01:23:47.966Z,64.60
2018-09-08T01:26:15.472Z,63.40
2018-09-08T01:28:42.806Z,64.00
2018-09-08T01:31:10.123Z,64.60
2018-09-08T01:33:37.451Z,64.00
2018-09-08T01:36:04.799Z,64.00
2018-09-08T01:38:32.166Z,63.90
2018-09-08T01:40:59.600Z,64.10
2018-09-08T01:43:26.921Z,64.20
2018-09-08T01:45:54.272Z,64.40
2018-09-08T01:48:21.883Z,64.30
2018-09-08T01:50:49.231Z,64.10
2018-09-08T01:53:16.598Z,64.20
2018-09-08T01:55:43.955Z,64.40
2018-09-08T01:58:11.294Z,64.50
2018-09-08T02:00:38.636Z,64.60
2018-09-08T02:03:06.084Z,65.00
2018-09-08T02:05:33.890Z,64.90
2018-09-08T02:08:01.236Z,65.00
2018-09-08T02:10:28.640Z,64.90
2018-09-08T02:12:55.971Z,65.30
2018-09-08T02:15:23.311Z,65.10
2018-09-08T02:17:50.667Z,66.80
2018-09-08T02:20:18.071Z,66.10
2018-09-08T02:22:45.440Z,65.70
2018-09-08T02:25:12.788Z,65.80
2018-09-08T02:27:41.411Z,65.90
2018-09-08T02:30:09.048Z,66.20
2018-09-08T02:32:36.392Z,66.50
2018-09-08T02:35:04.017Z,66.00
2018-09-08T02:37:31.359Z,66.30
2018-09-08T02:39:58.714Z,65.80
2018-09-08T02:42:26.135Z,66.50
2018-09-08T02:44:53.489Z,66.60
2018-09-08T02:47:20.863Z,65.90
2018-09-08T02:49:59.727Z,66.30
2018-09-08T02:52:26.124Z,66.40
2018-09-08T02:54:52.513Z,66.10
2018-09-08T02:57:18.903Z,66.00
2018-09-08T02:59:45.315Z,66.50
2018-09-08T03:02:11.718Z,66.00
2018-09-08T03:04:38.099Z,66.10
2018-09-08T03:07:10.147Z,66.40
2018-09-08T03:09:36.523Z,66.70
2018-09-08T03:12:02.924Z,66.70
2018-09-08T03:14:29.316Z,66.70
2018-09-08T03:16:55.686Z,67.10
2018-09-08T03:19:22.067Z,67.20
2018-09-08T03:21:48.444Z,67.20
2018-09-08T03:24:14.823Z,67.00
2018-09-08T03:26:41.219Z,67.20
2018-09-08T03:29:07.607Z,67.40
2018-09-08T03:31:33.984Z,67.40
2018-09-08T03:34:00.406Z,67.30
2018-09-08T03:36:27.011Z,67.50
2018-09-08T03:38:53.385Z,67.60
2018-09-08T03:41:19.772Z,67.40
2018-09-08T03:43:46.154Z,68.30
2018-09-08T03:46:12.540Z,67.80
2018-09-08T03:48:38.940Z,67.90
2018-09-08T03:51:05.387Z,68.50
2018-09-08T03:53:31.771Z,68.20
2018-09-08T03:55:58.160Z,67.80
2018-09-08T03:58:24.555Z,68.10
2018-09-08T04:00:50.975Z,67.90
2018-09-08T04:03:18.334Z,67.80
2018-09-08T04:05:45.694Z,68.20
2018-09-08T04:08:13.023Z,68.00
2018-09-08T04:10:40.375Z,68.30
2018-09-08T04:13:07.723Z,68.70
2018-09-08T04:15:35.061Z,68.90
2018-09-08T04:18:02.430Z,68.80
2018-09-08T04:20:29.738Z,68.50
2018-09-08T04:22:57.072Z,68.70
2018-09-08T04:25:24.415Z,68.30
2018-09-08T04:27:51.747Z,68.60
2018-09-08T04:30:19.087Z,69.00
2018-09-08T04:32:46.432Z,68.40
2018-09-08T04:35:13.807Z,68.90
2018-09-08T04:37:41.155Z,68.50
2018-09-08T04:40:10.328Z,68.50
2018-09-08T04:42:37.662Z,68.40
2018-09-08T04:45:05.395Z,68.40
2018-09-08T04:47:32.741Z,68.90
2018-09-08T04:50:00.096Z,68.30
2018-09-08T04:52:27.427Z,69.40
2018-09-08T04:54:54.767Z,69.00
2018-09-08T04:57:22.087Z,68.50
2018-09-08T04:59:49.449Z,68.30
2018-09-08T05:02:16.775Z,68.80
2018-09-08T05:04:44.121Z,68.50
2018-09-08T05:07:11.463Z,69.00
2018-09-08T05:09:38.796Z,68.70
2018-09-08T05:12:06.134Z,68.70
2018-09-08T05:14:33.525Z,68.50
2018-09-08T05:17:00.881Z,68.50
2018-09-08T05:19:28.457Z,68.70
2018-09-08T05:21:57.014Z,68.40
2018-09-08T05:24:24.348Z,68.30
2018-09-08T05:26:51.715Z,68.60
2018-09-08T05:29:19.079Z,68.60
2018-09-08T05:31:46.464Z,68.60
2018-09-08T05:34:13.795Z,68.70
2018-09-08T05:36:41.136Z,68.70
2018-09-08T05:39:08.559Z,69.30
2018-09-08T05:41:36.190Z,69.40
2018-09-08T05:44:03.534Z,69.70
2018-09-08T05:46:31.028Z,70.00
2018-09-08T05:48:58.508Z,70.20
2018-09-08T05:51:25.825Z,70.30
2018-09-08T05:53:53.185Z,70.80
2018-09-08T05:56:20.591Z,69.70
2018-09-08T05:58:47.935Z,70.50
2018-09-08T06:01:15.283Z,70.90
2018-09-08T06:03:42.670Z,71.70
2018-09-08T06:06:10.012Z,71.60
2018-09-08T06:08:37.359Z,71.20
2018-09-08T06:11:04.697Z,70.80
2018-09-08T06:13:32.087Z,71.30
2018-09-08T06:15:59.479Z,72.00
2018-09-08T06:18:26.803Z,71.70
2018-09-08T06:20:54.184Z,71.20
2018-09-08T06:23:21.543Z,73.10
2018-09-08T06:25:48.875Z,72.00
2018-09-08T06:28:16.238Z,71.70
2018-09-08T06:30:43.572Z,73.30
2018-09-08T06:33:10.918Z,72.80
2018-09-08T06:35:38.299Z,74.20
2018-09-08T06:38:05.907Z,72.30
2018-09-08T06:40:33.264Z,73.10
2018-09-08T06:43:00.640Z,71.90
2018-09-08T06:45:27.984Z,72.60
2018-09-08T06:47:55.332Z,73.40
2018-09-08T06:50:22.684Z,72.20
2018-09-08T06:52:50.068Z,72.20
2018-09-08T06:55:17.531Z,72.90
2018-09-08T06:57:44.941Z,72.70
2018-09-08T07:00:12.264Z,71.90
2018-09-08T07:02:39.729Z,72.50
2018-09-08T07:05:07.172Z,72.70
2018-09-08T07:07:34.544Z,72.30
2018-09-08T07:10:01.913Z,72.30
2018-09-08T07:12:29.280Z,72.60
2018-09-08T07:14:56.611Z,71.50
2018-09-08T07:17:23.939Z,71.90
2018-09-08T07:19:51.317Z,71.90
2018-09-08T07:22:18.776Z,71.60
2018-09-08T07:24:46.156Z,71.60
2018-09-08T07:27:13.545Z,71.30
2018-09-08T07:29:40.895Z,71.10
2018-09-08T07:32:08.259Z,70.80
2018-09-08T07:34:35.622Z,71.00
2018-09-08T07:37:02.971Z,71.20
2018-09-08T07:39:31.229Z,70.80
2018-09-08T07:41:58.584Z,70.80
2018-09-08T07:44:25.964Z,70.30
2018-09-08T07:46:53.324Z,70.20
2018-09-08T07:49:20.705Z,70.50
2018-09-08T07:51:48.060Z,70.40
2018-09-08T07:54:15.416Z,70.20
2018-09-08T07:56:42.787Z,70.20
2018-09-08T07:59:10.233Z,70.20
2018-09-08T08:01:37.590Z,70.00
2018-09-08T08:04:04.951Z,70.60
2018-09-08T08:06:32.416Z,70.20
2018-09-08T08:08:59.728Z,69.90
2018-09-08T08:11:27.113Z,69.80
2018-09-08T08:13:54.464Z,69.70
2018-09-08T08:16:21.819Z,70.00
2018-09-08T08:18:49.187Z,69.90
2018-09-08T08:21:16.612Z,69.70
2018-09-08T08:23:44.031Z,69.70
2018-09-08T08:26:11.383Z,69.50
2018-09-08T08:28:39.260Z,69.10
2018-09-08T08:31:06.607Z,68.50
2018-09-08T08:33:34.008Z,68.70
2018-09-08T08:36:01.572Z,68.40
2018-09-08T08:38:29.141Z,68.10
2018-09-08T08:40:56.503Z,68.10
2018-09-08T08:43:23.870Z,68.40
2018-09-08T08:45:51.221Z,68.00
2018-09-08T08:48:18.580Z,69.10
2018-09-08T08:50:57.517Z,68.30
2018-09-08T08:53:40.683Z,68.50
2018-09-08T08:56:08.525Z,68.30
2018-09-08T08:58:35.933Z,68.50
2018-09-08T09:01:03.316Z,68.00
2018-09-08T09:03:30.663Z,68.00
2018-09-08T09:05:58.017Z,68.40
2018-09-08T09:08:25.758Z,68.40
2018-09-08T09:10:52.733Z,68.10
2018-09-08T09:13:20.144Z,68.50
2018-09-08T09:15:47.497Z,68.20
2018-09-08T09:18:27.195Z,67.70
2018-09-08T09:21:06.696Z,68.00
2018-09-08T09:24:43.740Z,68.20
2018-09-08T09:27:10.712Z,68.50
2018-09-08T09:29:38.049Z,68.50
2018-09-08T09:32:05.413Z,68.70
2018-09-08T09:34:32.779Z,68.40
2018-09-08T09:37:00.179Z,68.50
2018-09-08T09:39:27.583Z,68.90
2018-09-08T09:41:54.955Z,68.70
2018-09-08T09:44:22.385Z,68.40
2018-09-08T09:46:49.652Z,67.80
2018-09-08T09:49:17.027Z,67.70
2018-09-08T09:51:44.383Z,67.90
2018-09-08T09:54:11.726Z,67.20
2018-09-08T09:56:39.072Z,64.50
2018-09-08T09:59:06.411Z,63.70
2018-09-08T10:01:39.509Z,63.80
2018-09-08T10:04:06.879Z,64.40
2018-09-08T10:06:34.251Z,63.30
2018-09-08T10:09:01.591Z,63.40
2018-09-08T10:11:28.984Z,63.10
2018-09-08T10:13:56.326Z,62.90
2018-09-08T10:16:23.699Z,63.60
2018-09-08T10:18:51.041Z,62.10
2018-09-08T10:21:18.494Z,61.80
2018-09-08T10:24:04.347Z,62.30
2018-09-08T10:26:13.247Z,61.20
2018-09-08T10:28:40.570Z,63.00
2018-09-08T10:31:08.021Z,62.90
2018-09-08T10:33:35.355Z,61.00
2018-09-08T10:36:02.696Z,60.70
2018-09-08T10:38:30.051Z,61.20
2018-09-08T10:40:57.382Z,61.10
2018-09-08T10:43:24.756Z,59.60
2018-09-08T10:45:52.129Z,61.30
2018-09-08T10:48:19.493Z,62.20
2018-09-08T10:50:46.832Z,59.50
2018-09-08T10:53:14.175Z,59.60
2018-09-08T10:55:41.526Z,58.80
2018-09-08T10:58:08.882Z,58.00
2018-09-08T11:00:36.226Z,59.20
2018-09-08T11:03:03.575Z,60.30
2018-09-08T11:05:30.941Z,59.50
2018-09-08T11:07:58.291Z,59.20
2018-09-08T11:10:25.641Z,59.70
2018-09-08T11:12:52.989Z,59.40
2018-09-08T11:15:20.436Z,59.40
2018-09-08T11:17:47.791Z,59.70
2018-09-08T11:20:15.129Z,58.80
2018-09-08T11:22:42.485Z,60.60
2018-09-08T11:25:09.837Z,59.70
2018-09-08T11:27:37.220Z,59.80
2018-09-08T11:30:05.618Z,61.20
2018-09-08T11:32:32.965Z,61.00
2018-09-08T11:35:00.311Z,61.50
2018-09-08T11:37:27.655Z,60.80
2018-09-08T11:39:55.004Z,62.00
2018-09-08T11:42:22.344Z,60.70
2018-09-08T11:44:49.757Z,60.80
2018-09-08T11:47:17.032Z,61.10
2018-09-08T11:49:44.411Z,60.60
2018-09-08T11:52:11.804Z,61.70
2018-09-08T11:54:39.435Z,60.90
2018-09-08T11:57:06.806Z,61.00
2018-09-08T11:59:34.234Z,61.60
2018-09-08T12:02:01.553Z,61.90
2018-09-08T12:04:28.992Z,61.80
2018-09-08T12:06:56.367Z,61.60
2018-09-08T12:09:23.708Z,60.80
2018-09-08T12:11:51.054Z,60.80
2018-09-08T12:14:18.421Z,61.70
2018-09-08T12:16:45.787Z,62.30
2018-09-08T12:19:13.195Z,61.90
2018-09-08T12:21:40.783Z,62.00
2018-09-08T12:24:08.131Z,62.70
2018-09-08T12:26:35.460Z,63.00
2018-09-08T12:29:02.811Z,62.50
2018-09-08T12:31:30.161Z,62.30
2018-09-08T12:33:58.306Z,62.40
2018-09-08T12:36:25.665Z,62.70
2018-09-08T12:38:53.099Z,63.00
2018-09-08T12:41:20.548Z,62.60
2018-09-08T12:43:48.168Z,63.20
2018-09-08T12:46:15.529Z,63.00
2018-09-08T12:48:42.879Z,62.10
2018-09-08T12:51:10.304Z,63.00
2018-09-08T12:53:37.635Z,63.40
2018-09-08T12:56:05.312Z,63.40
2018-09-08T12:58:32.666Z,63.40
2018-09-08T13:01:00.011Z,63.20
2018-09-08T13:03:27.347Z,63.60
2018-09-08T13:05:54.680Z,63.70
2018-09-08T13:08:22.040Z,63.10
2018-09-08T13:10:49.385Z,64.80
2018-09-08T13:13:16.763Z,63.60
2018-09-08T13:15:44.131Z,64.10
2018-09-08T13:18:11.483Z,64.50
2018-09-08T13:20:38.839Z,64.40
2018-09-08T13:23:06.247Z,64.40
2018-09-08T13:25:33.573Z,64.70
2018-09-08T13:28:00.903Z,64.90
2018-09-08T13:30:28.264Z,64.60
2018-09-08T13:32:55.600Z,65.20
2018-09-08T13:35:23.055Z,64.50
2018-09-08T13:37:50.412Z,65.80
2018-09-08T13:40:17.959Z,64.90
2018-09-08T13:42:45.324Z,65.00
2018-09-08T13:45:12.668Z,65.00
2018-09-08T13:47:40.009Z,64.60
2018-09-08T13:50:07.336Z,65.30
2018-09-08T13:52:34.723Z,65.00
2018-09-08T13:55:02.098Z,64.90
2018-09-08T13:57:29.452Z,64.70
2018-09-08T13:59:57.849Z,64.70
2018-09-08T14:02:25.189Z,64.60
2018-09-08T14:04:52.547Z,64.70
2018-09-08T14:07:19.884Z,63.50
2018-09-08T14:09:47.232Z,63.90
2018-09-08T14:12:14.571Z,63.10
2018-09-08T14:14:41.907Z,63.60
2018-09-08T14:17:09.284Z,63.40
2018-09-08T14:19:36.643Z,63.10
2018-09-08T14:22:06.007Z,63.20
2018-09-08T14:24:33.348Z,62.30
2018-09-08T14:27:00.672Z,62.00
2018-09-08T14:29:28.070Z,61.70
2018-09-08T14:31:55.439Z,62.30
2018-09-08T14:34:22.783Z,62.50
2018-09-08T14:36:50.162Z,62.10
2018-09-08T14:39:17.513Z,62.00
2018-09-08T14:41:44.839Z,61.60
2018-09-08T14:44:12.172Z,61.50
2018-09-08T14:46:39.528Z,62.30
2018-09-08T14:49:06.871Z,62.40
2018-09-08T14:51:34.300Z,61.00
2018-09-08T14:54:01.657Z,62.10
2018-09-08T14:56:29.007Z,62.50
2018-09-08T14:58:56.428Z,61.70
2018-09-08T15:01:23.791Z,61.90
2018-09-08T15:03:51.128Z,61.70
2018-09-08T15:06:18.494Z,62.70
2018-09-08T15:08:45.845Z,62.70
2018-09-08T15:11:13.183Z,61.60
2018-09-08T15:13:40.546Z,61.70
2018-09-08T15:16:07.880Z,61.80
2018-09-08T15:18:35.212Z,61.60
2018-09-08T15:21:02.578Z,61.50
2018-09-08T15:23:29.929Z,62.00
2018-09-08T15:25:57.283Z,62.00
2018-09-08T15:28:24.652Z,62.80
2018-09-08T15:30:51.995Z,61.60
2018-09-08T15:33:19.332Z,62.00
2018-09-08T15:35:46.688Z,62.10
2018-09-08T15:38:14.110Z,62.20
2018-09-08T15:40:42.321Z,62.20
2018-09-08T15:43:09.663Z,62.60
2018-09-08T15:45:36.996Z,62.50
2018-09-08T15:48:04.347Z,63.10
2018-09-08T15:50:31.708Z,63.10
2018-09-08T15:52:59.060Z,63.20
2018-09-08T15:55:26.475Z,63.10
2018-09-08T15:57:53.822Z,63.00
2018-09-08T16:00:21.187Z,63.00
2018-09-08T16:02:48.559Z,63.20
2018-09-08T16:05:15.924Z,63.40
2018-09-08T16:07:43.304Z,62.50
2018-09-08T16:10:11.112Z,62.80
2018-09-08T16:12:38.479Z,63.10
2018-09-08T16:15:05.841Z,63.40
2018-09-08T16:17:33.303Z,63.20
2018-09-08T16:20:00.684Z,63.10
2018-09-08T16:22:28.061Z,63.00
2018-09-08T16:24:55.523Z,62.90
2018-09-08T16:27:22.871Z,62.80
2018-09-08T16:29:50.256Z,62.80
2018-09-08T16:32:17.611Z,63.00
2018-09-08T16:34:44.988Z,63.40
2018-09-08T16:37:12.339Z,62.80
2018-09-08T16:39:39.703Z,63.00
2018-09-08T16:42:07.140Z,62.80
2018-09-08T16:44:34.479Z,63.00
2018-09-08T16:47:01.860Z,63.20
2018-09-08T16:49:29.339Z,62.30
2018-09-08T16:51:56.730Z,63.00
2018-09-08T16:54:24.121Z,63.50
2018-09-08T16:56:51.477Z,63.50
2018-09-08T16:59:18.823Z,62.50
2018-09-08T17:01:46.184Z,63.10
2018-09-08T17:04:13.589Z,63.40
2018-09-08T17:06:41.027Z,63.30
2018-09-08T17:09:08.464Z,62.50
2018-09-08T17:11:36.168Z,63.20
2018-09-08T17:14:03.529Z,63.20
2018-09-08T17:16:31.067Z,63.20
2018-09-08T17:18:58.423Z,62.60
2018-09-08T17:21:25.775Z,63.40
2018-09-08T17:23:53.132Z,63.30
2018-09-08T17:26:20.540Z,62.20
2018-09-08T17:28:47.890Z,62.50
2018-09-08T17:31:15.232Z,62.60
2018-09-08T17:33:42.594Z,62.20
2018-09-08T17:36:09.950Z,63.10
2018-09-08T17:38:37.299Z,63.10
2018-09-08T17:41:04.835Z,63.20
2018-09-08T17:43:32.188Z,62.80
2018-09-08T17:45:59.539Z,63.50
2018-09-08T17:48:26.899Z,63.50
2018-09-08T17:50:54.255Z,63.40
2018-09-08T17:53:21.615Z,63.00
2018-09-08T17:55:50.292Z,63.40
2018-09-08T17:58:17.615Z,63.40
2018-09-08T18:00:45.008Z,63.10
2018-09-08T18:03:12.361Z,63.40
2018-09-08T18:05:39.760Z,63.50
2018-09-08T18:08:07.131Z,63.20
2018-09-08T18:10:34.496Z,63.10
2018-09-08T18:13:01.826Z,63.70
2018-09-08T18:15:29.175Z,63.40
2018-09-08T18:17:56.543Z,62.90
2018-09-08T18:20:23.882Z,63.10
2018-09-08T18:22:51.226Z,63.60
2018-09-08T18:25:18.830Z,63.40
2018-09-08T18:27:46.175Z,63.70
2018-09-08T18:30:13.509Z,63.70
2018-09-08T18:32:40.877Z,63.60
2018-09-08T18:35:09.174Z,63.80
2018-09-08T18:37:36.572Z,63.90
2018-09-08T18:40:03.987Z,63.70
2018-09-08T18:42:33.024Z,63.80
2018-09-08T18:45:00.385Z,63.70
2018-09-08T18:47:27.763Z,63.80
2018-09-08T18:49:55.127Z,64.00
2018-09-08T18:52:22.471Z,63.40
2018-09-08T18:54:49.826Z,63.80
2018-09-08T18:57:18.224Z,63.80
2018-09-08T18:59:45.559Z,63.80
2018-09-08T19:02:12.907Z,64.00
2018-09-08T19:04:40.243Z,64.10
2018-09-08T19:07:07.592Z,64.10
2018-09-08T19:09:34.961Z,64.10
2018-09-08T19:12:02.348Z,64.10
2018-09-08T19:14:35.471Z,64.00
2018-09-08T19:17:02.831Z,64.10
2018-09-08T19:19:30.201Z,64.00
2018-09-08T19:21:57.531Z,64.30
2018-09-08T19:24:30.463Z,64.20
2018-09-08T19:26:57.808Z,64.10
2018-09-08T19:29:30.692Z,64.40
2018-09-08T19:31:58.491Z,64.20
2018-09-08T19:34:25.832Z,64.50
2018-09-08T19:36:53.183Z,64.00
2018-09-08T19:39:20.535Z,64.80
2018-09-08T19:41:47.875Z,64.40
2018-09-08T19:44:15.224Z,64.50
2018-09-08T19:47:46.064Z,64.50
2018-09-08T19:50:13.424Z,64.70
2018-09-08T19:52:46.497Z,64.90
2018-09-08T19:55:13.992Z,64.90
2018-09-08T19:57:47.056Z,65.00
2018-09-08T20:00:14.514Z,65.30
2018-09-08T20:02:41.903Z,65.10
2018-09-08T20:05:09.336Z,65.20
2018-09-08T20:07:36.809Z,65.20
2018-09-08T20:10:04.197Z,65.10
2018-09-08T20:12:32.719Z,65.20
2018-09-08T20:15:00.151Z,65.30
2018-09-08T20:17:27.482Z,65.10
2018-09-08T20:19:55.292Z,65.20
2018-09-08T20:22:22.860Z,65.50
2018-09-08T20:24:50.315Z,66.40
2018-09-08T20:27:18.159Z,65.60
2018-09-08T20:29:45.546Z,65.60
2018-09-08T20:32:12.921Z,65.50
2018-09-08T20:34:40.322Z,65.50
2018-09-08T20:37:07.674Z,65.50
2018-09-08T20:39:35.017Z,65.60
2018-09-08T20:42:02.896Z,65.60
2018-09-08T20:44:30.598Z,65.50
2018-09-08T20:46:57.991Z,65.70
2018-09-08T20:49:25.371Z,65.80
2018-09-08T20:51:52.712Z,65.90
2018-09-08T20:54:20.099Z,66.10
2018-09-08T20:56:47.510Z,66.20
2018-09-08T20:59:14.803Z,66.20
2018-09-08T21:01:42.167Z,66.10
2018-09-08T21:04:09.504Z,66.10
2018-09-08T21:06:36.839Z,66.50
2018-09-08T21:09:04.844Z,66.20
2018-09-08T21:11:32.204Z,66.10
2018-09-08T21:13:59.563Z,66.40
2018-09-08T21:16:26.891Z,66.40
2018-09-08T21:18:54.219Z,66.20
2018-09-08T21:21:21.564Z,66.30
2018-09-08T21:23:48.895Z,66.80
2018-09-08T21:26:16.258Z,66.30
2018-09-08T21:28:43.621Z,66.30
2018-09-08T21:31:10.955Z,66.60
2018-09-08T21:33:38.279Z,66.50
2018-09-08T21:36:05.626Z,66.50
2018-09-08T21:38:32.960Z,66.70
2018-09-08T21:41:00.327Z,66.60
2018-09-08T21:43:27.754Z,66.80
2018-09-08T21:45:55.092Z,66.90
2018-09-08T21:48:22.447Z,66.80
2018-09-08T21:50:49.820Z,66.80
2018-09-08T21:53:17.154Z,66.80
2018-09-08T21:55:44.470Z,66.80
2018-09-08T21:58:11.808Z,66.90
2018-09-08T22:00:39.313Z,67.30
2018-09-08T22:03:06.665Z,67.60
2018-09-08T22:05:34.037Z,67.00
2018-09-08T22:08:01.384Z,67.30
2018-09-08T22:10:28.724Z,67.30
2018-09-08T22:12:56.077Z,67.60
2018-09-08T22:15:23.408Z,67.60
2018-09-08T22:17:50.747Z,68.00
2018-09-08T22:20:18.187Z,67.60
2018-09-08T22:22:45.594Z,67.40
2018-09-08T22:25:12.931Z,67.40
2018-09-08T22:27:40.267Z,67.80
2018-09-08T22:30:07.628Z,67.70
2018-09-08T22:32:34.966Z,67.40
2018-09-08T22:35:02.311Z,67.70
2018-09-08T22:37:29.750Z,67.50
2018-09-08T22:39:57.099Z,67.70
2018-09-08T22:42:24.443Z,68.00
2018-09-08T22:44:51.809Z,68.20
2018-09-08T22:47:19.151Z,68.10
2018-09-08T22:49:46.505Z,68.90
2018-09-08T22:52:13.912Z,69.30
2018-09-08T22:54:41.240Z,68.30
2018-09-08T22:57:08.612Z,68.50
2018-09-08T22:59:36.039Z,69.10
2018-09-08T23:02:03.372Z,68.90
2018-09-08T23:04:30.748Z,68.80
2018-09-08T23:06:58.110Z,69.00
2018-09-08T23:09:25.451Z,68.80
2018-09-08T23:11:52.820Z,68.80
2018-09-08T23:14:20.179Z,68.30
2018-09-08T23:16:47.515Z,68.80
2018-09-08T23:19:14.910Z,69.20
2018-09-08T23:21:42.252Z,70.00
2018-09-08T23:24:09.886Z,69.90
2018-09-08T23:26:37.255Z,69.90
2018-09-08T23:29:04.593Z,70.00
2018-09-08T23:31:32.194Z,70.20
2018-09-08T23:33:59.532Z,70.00
2018-09-08T23:36:26.899Z,69.70
2018-09-08T23:38:54.232Z,70.70
2018-09-08T23:41:21.579Z,69.70
2018-09-08T23:43:48.947Z,70.50
2018-09-08T23:46:16.289Z,71.20
2018-09-08T23:48:43.633Z,70.00
2018-09-08T23:51:10.984Z,70.20
2018-09-08T23:53:38.341Z,70.30
2018-09-08T23:56:05.683Z,69.90
2018-09-08T23:58:33.044Z,70.00
